createdAt,value
2018-04-26T00:01:13.854Z,31.75
2018-04-26T00:03:41.381Z,28.67
2018-04-26T00:06:08.913Z,26.08
2018-04-26T00:08:36.475Z,32.63
2018-04-26T00:11:04.016Z,26.35
2018-04-26T00:13:32.349Z,29.17
2018-04-26T00:15:59.917Z,36.33
2018-04-26T00:18:27.478Z,36.35
2018-04-26T00:20:55.020Z,33.15
2018-04-26T00:23:22.552Z,33.35
2018-04-26T00:25:50.082Z,37.05
2018-04-26T00:28:17.637Z,43.75
2018-04-26T00:30:45.180Z,38.75
2018-04-26T00:33:12.715Z,47.10
2018-04-26T00:35:41.038Z,39.15
2018-04-26T00:38:08.628Z,46.28
2018-04-26T00:40:36.176Z,40.15
2018-04-26T00:43:03.726Z,39.25
2018-04-26T00:45:31.288Z,36.92
2018-04-26T00:47:58.873Z,38.08
2018-04-26T00:50:26.414Z,35.15
2018-04-26T00:52:54.011Z,34.70
2018-04-26T00:55:21.570Z,39.53
2018-04-26T00:57:49.106Z,32.05
2018-04-26T01:00:16.639Z,29.40
2018-04-26T01:02:44.979Z,28.87
2018-04-26T01:05:12.519Z,36.38
2018-04-26T01:07:40.054Z,23.85
2018-04-26T01:10:08.422Z,30.15
2018-04-26T01:12:36.735Z,32.05
2018-04-26T01:15:04.287Z,25.08
2018-04-26T01:17:31.820Z,30.48
2018-04-26T01:19:59.398Z,21.67
2018-04-26T01:22:27.705Z,21.85
2018-04-26T01:24:55.261Z,27.35
2018-04-26T01:27:22.816Z,30.08
2018-04-26T01:29:51.127Z,34.67
2018-04-26T01:32:18.693Z,33.72
2018-04-26T01:34:46.243Z,32.58
2018-04-26T01:37:25.783Z,29.52
2018-04-26T01:39:53.351Z,30.42
2018-04-26T01:42:20.933Z,35.85
2018-04-26T01:44:48.470Z,32.22
2018-04-26T01:47:16.031Z,38.58
2018-04-26T01:49:43.581Z,27.85
2018-04-26T01:52:11.918Z,28.50
2018-04-26T01:54:40.353Z,29.27
2018-04-26T01:57:07.930Z,28.17
2018-04-26T01:59:35.499Z,26.37
2018-04-26T02:02:03.038Z,26.23
2018-04-26T02:04:31.352Z,28.10
2018-04-26T02:06:58.878Z,29.15
2018-04-26T02:09:27.250Z,28.02
2018-04-26T02:11:54.790Z,23.60
2018-04-26T02:14:22.322Z,27.37
2018-04-26T02:16:49.869Z,35.25
2018-04-26T02:19:17.411Z,26.65
2018-04-26T02:21:45.724Z,29.25
2018-04-26T02:26:47.937Z,34.35
2018-04-26T02:29:15.478Z,29.02
2018-04-26T02:31:43.041Z,26.02
2018-04-26T02:34:10.601Z,21.35
2018-04-26T02:36:38.164Z,22.17
2018-04-26T02:39:05.708Z,22.67
2018-04-26T02:41:34.015Z,23.30
2018-04-26T02:44:01.570Z,20.65
2018-04-26T02:46:29.151Z,25.88
2018-04-26T02:48:56.712Z,27.55
2018-04-26T02:51:24.241Z,20.70
2018-04-26T02:53:52.542Z,29.75
2018-04-26T02:56:20.088Z,25.77
2018-04-26T02:58:48.391Z,26.10
2018-04-26T03:01:15.974Z,25.48
2018-04-26T03:03:43.590Z,19.50
2018-04-26T03:06:11.160Z,24.10
2018-04-26T03:08:39.502Z,30.52
2018-04-26T03:11:07.091Z,22.75
2018-04-26T03:13:34.646Z,19.75
2018-04-26T03:16:02.204Z,21.65
2018-04-26T03:18:29.756Z,22.98
2018-04-26T03:20:57.314Z,19.20
2018-04-26T03:23:24.851Z,23.35
2018-04-26T03:25:52.410Z,22.40
2018-04-26T03:28:19.951Z,20.52
2018-04-26T03:30:47.482Z,21.90
2018-04-26T03:33:15.043Z,22.55
2018-04-26T03:35:42.587Z,21.67
2018-04-26T03:38:10.113Z,23.50
2018-04-26T03:40:38.441Z,31.02
2018-04-26T03:43:06.011Z,28.85
2018-04-26T03:45:33.573Z,29.52
2018-04-26T03:48:01.130Z,30.00
2018-04-26T03:50:28.673Z,29.80
2018-04-26T03:52:56.206Z,25.77
2018-04-26T03:55:23.802Z,29.75
2018-04-26T03:57:51.337Z,24.48
2018-04-26T04:00:30.570Z,35.88
2018-04-26T04:03:10.846Z,24.02
2018-04-26T04:05:50.323Z,24.23
2018-04-26T04:08:17.885Z,22.23
2018-04-26T04:10:45.442Z,22.55
2018-04-26T04:13:13.026Z,23.87
2018-04-26T04:15:40.605Z,25.80
2018-04-26T04:18:08.170Z,23.62
2018-04-26T04:20:35.697Z,22.58
2018-04-26T04:23:03.220Z,27.95
2018-04-26T04:25:31.532Z,26.30
2018-04-26T04:27:59.098Z,23.87
2018-04-26T04:30:26.636Z,30.33
2018-04-26T04:32:54.179Z,26.87
2018-04-26T04:35:22.551Z,36.70
2018-04-26T04:37:50.103Z,28.17
2018-04-26T04:40:17.647Z,30.88
2018-04-26T04:42:45.179Z,31.15
2018-04-26T04:45:12.782Z,35.40
2018-04-26T04:47:41.036Z,36.28
2018-04-26T04:50:08.603Z,40.67
2018-04-26T04:52:36.160Z,32.05
2018-04-26T04:55:03.720Z,40.08
2018-04-26T04:57:31.295Z,38.00
2018-04-26T04:59:58.845Z,40.85
2018-04-26T05:02:26.424Z,39.65
2018-04-26T05:04:53.958Z,35.47
2018-04-26T05:07:22.324Z,36.40
2018-04-26T05:09:49.850Z,31.65
2018-04-26T05:12:17.377Z,34.10
2018-04-26T05:14:44.939Z,28.67
2018-04-26T05:17:12.497Z,30.67
2018-04-26T05:19:40.859Z,38.97
2018-04-26T05:22:08.393Z,36.22
2018-04-26T05:24:35.917Z,32.63
2018-04-26T05:27:03.455Z,31.95
2018-04-26T05:29:31.748Z,36.88
2018-04-26T05:32:00.051Z,34.88
2018-04-26T05:34:27.582Z,35.15
2018-04-26T05:36:55.906Z,38.97
2018-04-26T05:39:23.446Z,36.08
2018-04-26T05:41:51.746Z,29.23
2018-04-26T05:44:19.294Z,30.73
2018-04-26T05:46:46.818Z,25.40
2018-04-26T05:49:14.398Z,31.65
2018-04-26T05:51:41.940Z,29.35
2018-04-26T05:54:09.499Z,30.58
2018-04-26T05:56:37.050Z,25.02
2018-04-26T05:59:04.615Z,26.58
2018-04-26T06:01:32.149Z,29.15
2018-04-26T06:03:59.691Z,26.83
2018-04-26T06:06:28.004Z,28.58
2018-04-26T06:08:55.563Z,27.37
2018-04-26T06:11:23.196Z,25.88
2018-04-26T06:13:50.721Z,26.98
2018-04-26T06:16:18.269Z,28.38
2018-04-26T06:18:45.829Z,31.52
2018-04-26T06:21:13.393Z,23.95
2018-04-26T06:23:40.935Z,26.70
2018-04-26T06:26:08.480Z,23.65
2018-04-26T06:28:36.808Z,26.30
2018-04-26T06:31:04.362Z,27.20
2018-04-26T06:33:31.905Z,30.95
2018-04-26T06:36:00.238Z,27.77
2018-04-26T06:38:27.785Z,26.48
2018-04-26T06:40:55.331Z,27.37
2018-04-26T06:43:22.895Z,27.75
2018-04-26T06:45:50.429Z,26.70
2018-04-26T06:48:18.748Z,29.33
2018-04-26T06:50:46.295Z,30.02
2018-04-26T06:53:13.859Z,26.70
2018-04-26T06:55:41.407Z,24.42
2018-04-26T06:58:09.720Z,35.42
2018-04-26T07:00:37.286Z,29.85
2018-04-26T07:03:04.908Z,27.17
2018-04-26T07:05:33.243Z,32.00
2018-04-26T07:08:00.782Z,28.33
2018-04-26T07:10:28.345Z,22.35
2018-04-26T07:12:55.886Z,31.60
2018-04-26T07:15:24.194Z,23.05
2018-04-26T07:17:51.750Z,24.95
2018-04-26T07:20:19.306Z,25.12
2018-04-26T07:22:47.618Z,30.52
2018-04-26T07:25:15.191Z,30.58
2018-04-26T07:27:42.753Z,29.42
2018-04-26T07:30:10.294Z,29.27
2018-04-26T07:32:37.898Z,26.42
2018-04-26T07:35:05.444Z,25.88
2018-04-26T07:37:33.120Z,24.87
2018-04-26T07:40:00.685Z,22.75
2018-04-26T07:42:28.295Z,28.17
2018-04-26T07:44:56.671Z,28.40
2018-04-26T07:47:24.969Z,22.65
2018-04-26T07:49:53.276Z,25.65
2018-04-26T07:52:20.834Z,22.35
2018-04-26T07:54:48.407Z,22.58
2018-04-26T07:57:15.978Z,23.60
2018-04-26T07:59:43.528Z,25.48
2018-04-26T08:02:11.071Z,23.55
2018-04-26T08:04:39.376Z,18.30
2018-04-26T08:07:06.941Z,17.65
2018-04-26T08:09:34.493Z,22.67
2018-04-26T08:12:02.087Z,23.38
2018-04-26T08:14:29.633Z,22.37
2018-04-26T08:16:57.173Z,23.92
2018-04-26T08:19:25.516Z,22.77
2018-04-26T08:21:53.080Z,25.62
2018-04-26T08:24:20.612Z,20.85
2018-04-26T08:26:48.138Z,23.08
2018-04-26T08:29:16.435Z,16.60
2018-04-26T08:31:43.989Z,20.67
2018-04-26T08:34:11.559Z,16.05
2018-04-26T08:36:39.103Z,13.15
2018-04-26T08:39:07.431Z,12.48
2018-04-26T08:41:35.019Z,13.18
2018-04-26T08:44:02.559Z,14.48
2018-04-26T08:46:30.098Z,13.68
2018-04-26T08:48:57.658Z,13.10
2018-04-26T08:51:25.198Z,15.15
2018-04-26T08:53:53.223Z,14.75
2018-04-26T08:56:20.763Z,12.77
2018-04-26T08:58:48.303Z,18.40
2018-04-26T09:01:15.838Z,11.98
2018-04-26T09:03:43.361Z,13.95
2018-04-26T09:06:10.899Z,12.15
2018-04-26T09:08:39.203Z,11.75
2018-04-26T09:11:06.773Z,14.63
2018-04-26T09:13:34.310Z,11.75
2018-04-26T09:16:02.626Z,15.07
2018-04-26T09:18:30.212Z,8.95
2018-04-26T09:20:57.789Z,12.40
2018-04-26T09:23:25.358Z,8.73
2018-04-26T09:25:52.917Z,8.60
2018-04-26T09:28:20.515Z,8.90
2018-04-26T09:30:48.818Z,9.07
2018-04-26T09:33:16.387Z,10.65
2018-04-26T09:35:43.927Z,8.95
2018-04-26T09:38:12.251Z,8.00
2018-04-26T09:40:39.777Z,9.77
2018-04-26T09:43:08.076Z,8.95
2018-04-26T09:45:35.609Z,7.97
2018-04-26T09:48:03.926Z,5.12
2018-04-26T09:50:31.458Z,6.20
2018-04-26T09:52:59.773Z,7.50
2018-04-26T09:55:27.378Z,6.18
2018-04-26T09:57:54.933Z,8.15
2018-04-26T10:00:33.302Z,5.43
2018-04-26T10:03:00.887Z,5.57
2018-04-26T10:05:33.929Z,14.70
2018-04-26T10:08:02.243Z,3.40
2018-04-26T10:10:29.774Z,4.80
2018-04-26T10:12:58.115Z,8.68
2018-04-26T10:15:25.636Z,5.18
2018-04-26T10:17:53.175Z,4.43
2018-04-26T10:20:20.701Z,9.05
2018-04-26T10:22:48.268Z,7.80
2018-04-26T10:25:15.822Z,5.32
2018-04-26T10:27:43.348Z,5.20
2018-04-26T10:30:11.668Z,5.22
2018-04-26T10:32:39.204Z,6.43
2018-04-26T10:35:06.739Z,4.25
2018-04-26T10:37:34.260Z,7.70
2018-04-26T10:40:01.794Z,5.85
2018-04-26T10:42:29.327Z,5.43
2018-04-26T10:44:56.872Z,4.00
2018-04-26T10:47:24.435Z,7.05
2018-04-26T10:49:51.983Z,7.60
2018-04-26T10:52:19.518Z,2.60
2018-04-26T10:54:47.157Z,7.97
2018-04-26T10:57:15.492Z,7.75
2018-04-26T10:59:43.049Z,3.67
2018-04-26T11:02:10.610Z,3.10
2018-04-26T11:04:38.229Z,5.10
2018-04-26T11:07:06.535Z,27.70
2018-04-26T11:09:34.096Z,3.87
2018-04-26T11:12:01.658Z,2.87
2018-04-26T11:14:29.330Z,2.08
2018-04-26T11:16:56.883Z,3.50
2018-04-26T11:19:25.223Z,3.70
2018-04-26T11:21:52.780Z,4.28
2018-04-26T11:24:20.459Z,6.97
2018-04-26T11:26:47.974Z,10.50
2018-04-26T11:29:15.546Z,6.10
2018-04-26T11:31:43.118Z,5.78
2018-04-26T11:34:10.689Z,5.93
2018-04-26T11:36:38.267Z,6.87
2018-04-26T11:39:05.813Z,4.20
2018-04-26T11:41:33.361Z,3.60
2018-04-26T11:44:00.903Z,3.83
2018-04-26T11:46:29.275Z,1.40
2018-04-26T11:48:57.619Z,4.87
2018-04-26T11:51:25.149Z,6.15
2018-04-26T11:53:52.747Z,2.92
2018-04-26T11:56:20.366Z,8.48
2018-04-26T11:58:47.897Z,8.48
2018-04-26T12:01:15.466Z,3.58
2018-04-26T12:03:43.003Z,6.60
2018-04-26T12:06:10.570Z,3.97
2018-04-26T12:08:38.110Z,6.22
2018-04-26T12:11:05.673Z,6.57
2018-04-26T12:13:33.221Z,2.60
2018-04-26T12:16:00.748Z,2.05
2018-04-26T12:18:28.421Z,4.35
2018-04-26T12:20:56.036Z,1.08
2018-04-26T12:23:23.594Z,3.70
2018-04-26T12:25:51.156Z,3.12
2018-04-26T12:28:18.718Z,6.97
2018-04-26T12:30:46.278Z,1.77
2018-04-26T12:33:13.820Z,3.28
2018-04-26T12:35:42.131Z,3.08
2018-04-26T12:38:09.706Z,6.75
2018-04-26T12:40:37.245Z,1.98
2018-04-26T12:43:04.805Z,4.05
2018-04-26T12:45:32.370Z,2.90
2018-04-26T12:48:00.666Z,2.35
2018-04-26T12:50:28.223Z,3.00
2018-04-26T12:52:55.766Z,3.05
2018-04-26T12:55:24.099Z,5.75
2018-04-26T12:57:51.635Z,7.05
2018-04-26T13:00:19.214Z,8.02
2018-04-26T13:02:46.787Z,7.72
2018-04-26T13:05:14.318Z,5.82
2018-04-26T13:07:42.634Z,7.05
2018-04-26T13:10:10.178Z,2.58
2018-04-26T13:12:37.748Z,4.22
2018-04-26T13:15:06.017Z,6.40
2018-04-26T13:17:33.629Z,2.22
2018-04-26T13:20:01.178Z,4.75
2018-04-26T13:22:28.716Z,7.05
2018-04-26T13:24:56.278Z,4.45
2018-04-26T13:27:23.824Z,3.22
2018-04-26T13:29:52.237Z,4.95
2018-04-26T13:32:19.797Z,2.85
2018-04-26T13:34:47.345Z,1.87
2018-04-26T13:37:14.936Z,5.00
2018-04-26T13:39:42.553Z,6.37
2018-04-26T13:42:10.115Z,13.80
2018-04-26T13:44:37.666Z,3.50
2018-04-26T13:47:05.225Z,3.12
2018-04-26T13:49:32.794Z,6.37
2018-04-26T13:52:00.391Z,3.30
2018-04-26T13:54:27.888Z,5.62
2018-04-26T13:56:55.471Z,4.50
2018-04-26T13:59:23.007Z,6.32
2018-04-26T14:01:50.568Z,5.68
2018-04-26T14:04:19.758Z,6.80
2018-04-26T14:06:47.330Z,2.50
2018-04-26T14:09:14.893Z,2.05
2018-04-26T14:11:42.431Z,7.05
2018-04-26T14:14:10.746Z,3.78
2018-04-26T14:16:38.283Z,2.10
2018-04-26T14:19:06.651Z,2.28
2018-04-26T14:21:34.969Z,3.67
2018-04-26T14:24:02.497Z,2.35
2018-04-26T14:26:30.797Z,4.90
2018-04-26T14:28:58.353Z,1.98
2018-04-26T14:31:26.652Z,1.65
2018-04-26T14:33:54.186Z,1.80
2018-04-26T14:36:22.507Z,2.03
2018-04-26T14:38:50.043Z,4.43
2018-04-26T14:41:17.619Z,2.50
2018-04-26T14:43:45.170Z,2.45
2018-04-26T14:46:13.466Z,2.67
2018-04-26T14:48:41.027Z,5.00
2018-04-26T14:51:08.582Z,5.22
2018-04-26T14:53:36.133Z,5.93
2018-04-26T14:56:04.458Z,3.85
2018-04-26T14:58:32.007Z,6.80
2018-04-26T15:00:59.539Z,4.25
2018-04-26T15:03:27.066Z,5.72
2018-04-26T15:05:55.366Z,5.97
2018-04-26T15:08:22.922Z,4.87
2018-04-26T15:10:50.479Z,3.33
2018-04-26T15:13:18.019Z,9.10
2018-04-26T15:15:45.567Z,8.73
2018-04-26T15:18:13.119Z,5.97
2018-04-26T15:20:40.685Z,4.12
2018-04-26T15:23:08.976Z,12.18
2018-04-26T15:25:36.525Z,6.00
2018-04-26T15:28:04.936Z,6.55
2018-04-26T15:30:32.482Z,3.67
2018-04-26T15:33:00.015Z,5.18
2018-04-26T15:35:27.570Z,2.58
2018-04-26T15:37:55.096Z,2.92
2018-04-26T15:40:22.651Z,5.03
2018-04-26T15:42:50.210Z,6.75
2018-04-26T15:45:17.753Z,2.62
2018-04-26T15:47:46.166Z,2.85
2018-04-26T15:50:13.844Z,4.10
2018-04-26T15:52:59.784Z,5.00
2018-04-26T15:55:39.863Z,5.20
2018-04-26T16:01:26.082Z,6.72
2018-04-26T16:04:05.410Z,2.83
2018-04-26T16:06:59.655Z,5.80
2018-04-26T16:09:39.083Z,1.55
2018-04-26T16:12:24.972Z,2.30
2018-04-26T16:15:04.341Z,1.52
2018-04-26T16:17:49.590Z,3.83
2018-04-26T16:20:45.587Z,1.73
2018-04-26T16:23:30.702Z,5.75
2018-04-26T16:26:10.125Z,3.03
2018-04-26T16:28:55.155Z,2.95
2018-04-26T16:31:52.022Z,5.05
2018-04-26T16:34:45.272Z,1.92
2018-04-26T16:37:42.271Z,3.33
2018-04-26T16:40:09.854Z,3.05
2018-04-26T16:42:37.418Z,2.87
2018-04-26T16:45:04.962Z,2.78
2018-04-26T16:47:32.517Z,2.47
2018-04-26T16:50:00.041Z,1.98
2018-04-26T16:52:27.588Z,2.05
2018-04-26T16:54:55.138Z,2.00
2018-04-26T16:57:22.662Z,4.05
2018-04-26T16:59:50.281Z,4.62
2018-04-26T17:02:17.842Z,3.45
2018-04-26T17:04:45.498Z,4.12
2018-04-26T17:07:12.936Z,6.35
2018-04-26T17:09:40.494Z,2.08
2018-04-26T17:12:08.060Z,3.42
2018-04-26T17:14:35.626Z,6.12
2018-04-26T17:17:03.191Z,2.42
2018-04-26T17:19:30.770Z,5.20
2018-04-26T17:21:58.306Z,4.70
2018-04-26T17:24:25.846Z,2.35
2018-04-26T17:26:53.458Z,2.08
2018-04-26T17:29:21.008Z,2.17
2018-04-26T17:31:48.566Z,1.95
2018-04-26T17:34:16.147Z,2.20
2018-04-26T17:36:43.683Z,4.57
2018-04-26T17:39:11.978Z,4.53
2018-04-26T17:41:39.516Z,3.50
2018-04-26T17:44:07.801Z,3.05
2018-04-26T17:46:36.118Z,7.65
2018-04-26T17:49:04.162Z,3.25
2018-04-26T17:51:31.721Z,9.02
2018-04-26T17:54:00.047Z,2.60
2018-04-26T17:56:27.606Z,2.70
2018-04-26T17:58:55.143Z,5.78
2018-04-26T18:01:23.471Z,5.22
2018-04-26T18:03:51.040Z,2.70
2018-04-26T18:06:18.638Z,4.65
2018-04-26T18:08:46.982Z,6.72
2018-04-26T18:11:14.531Z,2.95
2018-04-26T18:13:42.143Z,3.85
2018-04-26T18:16:09.678Z,2.80
2018-04-26T18:18:37.317Z,2.50
2018-04-26T18:21:04.921Z,2.87
2018-04-26T18:23:32.479Z,4.32
2018-04-26T18:26:00.025Z,4.32
2018-04-26T18:28:28.344Z,3.75
2018-04-26T18:30:55.872Z,3.05
2018-04-26T18:33:23.427Z,2.10
2018-04-26T18:35:52.061Z,2.80
2018-04-26T18:38:19.593Z,2.30
2018-04-26T18:40:47.199Z,3.17
2018-04-26T18:43:15.576Z,2.30
2018-04-26T18:45:43.917Z,1.98
2018-04-26T18:48:11.471Z,2.00
2018-04-26T18:50:39.511Z,5.32
2018-04-26T18:53:07.835Z,3.70
2018-04-26T18:55:35.363Z,5.90
2018-04-26T18:58:02.984Z,3.08
2018-04-26T19:00:30.540Z,3.67
2018-04-26T19:02:58.161Z,6.57
2018-04-26T19:05:25.657Z,5.30
2018-04-26T19:07:53.210Z,4.30
2018-04-26T19:10:20.766Z,5.00
2018-04-26T19:12:48.385Z,7.05
2018-04-26T19:15:16.004Z,4.60
2018-04-26T19:17:43.553Z,3.42
2018-04-26T19:20:11.087Z,5.62
2018-04-26T19:22:38.676Z,3.05
2018-04-26T19:25:06.254Z,2.95
2018-04-26T19:27:33.790Z,4.30
2018-04-26T19:30:02.085Z,3.47
2018-04-26T19:32:29.641Z,3.08
2018-04-26T19:34:57.957Z,3.40
2018-04-26T19:37:25.496Z,3.35
2018-04-26T19:39:53.033Z,5.00
2018-04-26T19:42:20.591Z,2.50
2018-04-26T19:44:48.153Z,2.65
2018-04-26T19:47:15.694Z,4.57
2018-04-26T19:49:43.246Z,3.12
2018-04-26T19:52:10.779Z,3.70
2018-04-26T19:54:38.385Z,3.90
2018-04-26T19:57:05.923Z,3.78
2018-04-26T19:59:33.470Z,5.25
2018-04-26T20:02:00.992Z,4.82
2018-04-26T20:04:28.532Z,3.67
2018-04-26T20:06:56.086Z,3.00
2018-04-26T20:09:23.748Z,5.18
2018-04-26T20:11:51.273Z,2.45
2018-04-26T20:14:19.590Z,4.25
2018-04-26T20:16:47.170Z,3.30
2018-04-26T20:19:14.823Z,5.22
2018-04-26T20:21:42.378Z,3.00
2018-04-26T20:24:09.931Z,2.85
2018-04-26T20:26:37.466Z,2.87
2018-04-26T20:29:05.000Z,2.83
2018-04-26T20:31:32.557Z,2.58
2018-04-26T20:34:00.115Z,2.15
2018-04-26T20:36:27.645Z,2.97
2018-04-26T20:38:55.928Z,4.15
2018-04-26T20:41:23.520Z,7.72
2018-04-26T20:43:51.024Z,4.47
2018-04-26T20:46:18.552Z,5.55
2018-04-26T20:48:46.079Z,3.42
2018-04-26T20:51:14.439Z,3.17
2018-04-26T20:53:41.960Z,2.80
2018-04-26T20:56:09.486Z,3.08
2018-04-26T20:58:37.773Z,3.12
2018-04-26T21:01:05.302Z,4.07
2018-04-26T21:03:32.830Z,5.20
2018-04-26T21:06:00.390Z,3.37
2018-04-26T21:08:27.982Z,3.65
2018-04-26T21:10:55.539Z,3.00
2018-04-26T21:13:23.084Z,3.05
2018-04-26T21:15:50.647Z,17.55
2018-04-26T21:18:18.191Z,2.78
2018-04-26T21:20:45.709Z,3.47
2018-04-26T21:23:13.247Z,2.90
2018-04-26T21:25:40.769Z,3.28
2018-04-26T21:28:09.077Z,3.53
2018-04-26T21:30:36.674Z,4.82
2018-04-26T21:33:04.278Z,3.97
2018-04-26T21:35:32.609Z,5.45
2018-04-26T21:38:00.109Z,4.60
2018-04-26T21:40:27.698Z,3.03
2018-04-26T21:42:55.247Z,4.12
2018-04-26T21:45:23.589Z,6.03
2018-04-26T21:47:51.128Z,3.50
2018-04-26T21:50:24.434Z,6.10
2018-04-26T21:52:57.582Z,3.00
2018-04-26T21:55:31.614Z,4.53
2018-04-26T21:58:04.892Z,2.90
2018-04-26T22:00:38.912Z,6.43
2018-04-26T22:03:06.458Z,4.45
2018-04-26T22:05:49.440Z,6.62
2018-04-26T22:08:17.066Z,3.85
2018-04-26T22:10:44.608Z,4.47
2018-04-26T22:13:12.913Z,3.92
2018-04-26T22:15:40.470Z,10.27
2018-04-26T22:18:07.989Z,4.53
2018-04-26T22:20:35.518Z,4.35
2018-04-26T22:23:03.047Z,4.47
2018-04-26T22:25:31.352Z,4.32
2018-04-26T22:27:58.907Z,5.00
2018-04-26T22:30:26.510Z,5.22
2018-04-26T22:32:54.066Z,5.93
2018-04-26T22:35:21.598Z,3.92
2018-04-26T22:37:49.151Z,8.00
2018-04-26T22:40:16.711Z,4.43
2018-04-26T22:42:45.005Z,9.50
2018-04-26T22:45:12.562Z,8.00
2018-04-26T22:47:40.092Z,7.75
2018-04-26T22:50:07.647Z,9.18
2018-04-26T22:52:35.202Z,8.88
2018-04-26T22:55:02.737Z,10.68
2018-04-26T22:57:30.299Z,10.27
2018-04-26T22:59:57.834Z,4.85
2018-04-26T23:02:26.140Z,6.50
2018-04-26T23:04:53.670Z,7.15
2018-04-26T23:07:21.953Z,5.37
2018-04-26T23:09:50.246Z,8.00
2018-04-26T23:12:18.557Z,5.47
2018-04-26T23:14:46.114Z,7.45
2018-04-26T23:17:13.654Z,9.27
2018-04-26T23:19:41.967Z,6.05
2018-04-26T23:22:09.523Z,4.68
2018-04-26T23:24:37.041Z,4.87
2018-04-26T23:27:04.622Z,10.15
2018-04-26T23:29:32.930Z,6.30
2018-04-26T23:32:00.480Z,6.10
2018-04-26T23:34:28.038Z,8.20
2018-04-26T23:36:55.570Z,5.68
2018-04-26T23:39:23.113Z,6.05
2018-04-26T23:41:50.674Z,7.80
2018-04-26T23:44:18.223Z,12.40
2018-04-26T23:46:45.751Z,7.75
2018-04-26T23:49:14.047Z,18.58
2018-04-26T23:51:41.602Z,7.03
2018-04-26T23:54:09.134Z,7.10
2018-04-26T23:56:36.666Z,9.10
2018-04-26T23:59:04.198Z,5.43
